sensor_id;sensor_type;location;lat;lon;timestamp;pressure;altitude;pressure_sealevel;temperature;humidity
79037;BME280;68434;59.896;30.474;2023-07-28T00:01:37;100331.00;;;20.77;55.02
79037;BME280;68434;59.896;30.474;2023-07-28T00:04:05;100330.84;;;20.72;55.22
79037;BME280;68434;59.896;30.474;2023-07-28T00:06:35;100329.81;;;20.73;55.31
79037;BME280;68434;59.896;30.474;2023-07-28T00:09:03;100317.72;;;20.74;55.04
79037;BME280;68434;59.896;30.474;2023-07-28T00:11:30;100309.72;;;20.72;55.06
79037;BME280;68434;59.896;30.474;2023-07-28T00:13:59;100310.56;;;20.73;54.95
79037;BME280;68434;59.896;30.474;2023-07-28T00:16:27;100309.94;;;20.71;55.02
79037;BME280;68434;59.896;30.474;2023-07-28T00:18:54;100304.66;;;20.69;55.15
79037;BME280;68434;59.896;30.474;2023-07-28T00:21:22;100296.81;;;20.73;54.83
79037;BME280;68434;59.896;30.474;2023-07-28T00:23:49;100284.34;;;20.70;54.41
79037;BME280;68434;59.896;30.474;2023-07-28T00:26:17;100279.69;;;20.71;54.48
79037;BME280;68434;59.896;30.474;2023-07-28T00:28:44;100268.47;;;20.72;54.23
79037;BME280;68434;59.896;30.474;2023-07-28T00:31:15;100274.19;;;20.71;54.04
79037;BME280;68434;59.896;30.474;2023-07-28T00:33:43;100280.78;;;20.70;53.83
79037;BME280;68434;59.896;30.474;2023-07-28T00:36:10;100268.31;;;20.67;53.92
79037;BME280;68434;59.896;30.474;2023-07-28T00:38:38;100254.56;;;20.67;53.68
79037;BME280;68434;59.896;30.474;2023-07-28T00:41:05;100256.34;;;20.62;53.64
79037;BME280;68434;59.896;30.474;2023-07-28T00:43:33;100262.06;;;20.60;53.80
79037;BME280;68434;59.896;30.474;2023-07-28T00:46:00;100256.56;;;20.60;53.94
79037;BME280;68434;59.896;30.474;2023-07-28T00:48:29;100255.50;;;20.61;53.93
79037;BME280;68434;59.896;30.474;2023-07-28T00:50:58;100242.84;;;20.60;53.79
79037;BME280;68434;59.896;30.474;2023-07-28T00:53:26;100233.50;;;20.61;53.78
79037;BME280;68434;59.896;30.474;2023-07-28T00:55:55;100233.16;;;20.58;53.69
79037;BME280;68434;59.896;30.474;2023-07-28T00:58:23;100241.41;;;20.58;53.46
79037;BME280;68434;59.896;30.474;2023-07-28T01:00:50;100238.78;;;20.63;53.17
79037;BME280;68434;59.896;30.474;2023-07-28T01:03:18;100240.69;;;20.62;52.95
79037;BME280;68434;59.896;30.474;2023-07-28T01:05:57;100235.44;;;20.61;52.67
79037;BME280;68434;59.896;30.474;2023-07-28T01:08:30;100243.69;;;20.61;52.47
79037;BME280;68434;59.896;30.474;2023-07-28T01:11:00;100240.31;;;20.59;52.59
79037;BME280;68434;59.896;30.474;2023-07-28T01:13:28;100242.69;;;20.55;52.33
79037;BME280;68434;59.896;30.474;2023-07-28T01:15:56;100243.75;;;20.54;52.29
79037;BME280;68434;59.896;30.474;2023-07-28T01:18:26;100238.25;;;20.54;52.03
79037;BME280;68434;59.896;30.474;2023-07-28T01:20:56;100240.66;;;20.51;51.81
79037;BME280;68434;59.896;30.474;2023-07-28T01:23:34;100244.00;;;20.52;51.56
79037;BME280;68434;59.896;30.474;2023-07-28T01:26:07;100241.47;;;20.51;51.97
79037;BME280;68434;59.896;30.474;2023-07-28T01:28:38;100230.94;;;20.48;52.03
79037;BME280;68434;59.896;30.474;2023-07-28T01:31:07;100239.66;;;20.45;52.19
79037;BME280;68434;59.896;30.474;2023-07-28T01:33:36;100238.22;;;20.42;52.89
79037;BME280;68434;59.896;30.474;2023-07-28T01:36:03;100231.63;;;20.43;52.97
79037;BME280;68434;59.896;30.474;2023-07-28T01:38:31;100220.06;;;20.41;53.00
79037;BME280;68434;59.896;30.474;2023-07-28T01:40:58;100224.09;;;20.39;53.26
79037;BME280;68434;59.896;30.474;2023-07-28T01:43:26;100223.97;;;20.34;53.36
79037;BME280;68434;59.896;30.474;2023-07-28T01:45:55;100229.06;;;20.30;53.88
79037;BME280;68434;59.896;30.474;2023-07-28T01:48:22;100229.28;;;20.29;54.21
79037;BME280;68434;59.896;30.474;2023-07-28T01:50:50;100215.16;;;20.25;54.19
79037;BME280;68434;59.896;30.474;2023-07-28T01:53:17;100211.84;;;20.23;54.25
79037;BME280;68434;59.896;30.474;2023-07-28T01:55:45;100209.78;;;20.19;54.83
79037;BME280;68434;59.896;30.474;2023-07-28T01:58:13;100221.81;;;20.18;54.70
79037;BME280;68434;59.896;30.474;2023-07-28T02:00:41;100230.06;;;20.18;54.95
79037;BME280;68434;59.896;30.474;2023-07-28T02:03:10;100226.25;;;20.19;54.44
79037;BME280;68434;59.896;30.474;2023-07-28T02:05:37;100220.16;;;20.17;54.76
79037;BME280;68434;59.896;30.474;2023-07-28T02:08:05;100213.22;;;20.14;54.94
79037;BME280;68434;59.896;30.474;2023-07-28T02:10:32;100214.47;;;20.12;55.04
79037;BME280;68434;59.896;30.474;2023-07-28T02:13:00;100207.13;;;20.06;55.42
79037;BME280;68434;59.896;30.474;2023-07-28T02:15:28;100210.81;;;20.00;55.40
79037;BME280;68434;59.896;30.474;2023-07-28T02:17:56;100206.00;;;19.95;55.27
79037;BME280;68434;59.896;30.474;2023-07-28T02:20:29;100208.59;;;19.90;55.69
79037;BME280;68434;59.896;30.474;2023-07-28T02:22:57;100202.72;;;19.87;55.86
79037;BME280;68434;59.896;30.474;2023-07-28T02:25:24;100198.75;;;19.83;55.60
79037;BME280;68434;59.896;30.474;2023-07-28T02:27:52;100191.22;;;19.78;55.62
79037;BME280;68434;59.896;30.474;2023-07-28T02:30:19;100184.47;;;19.74;55.63
79037;BME280;68434;59.896;30.474;2023-07-28T02:32:47;100187.69;;;19.71;55.76
79037;BME280;68434;59.896;30.474;2023-07-28T02:35:15;100182.41;;;19.70;55.64
79037;BME280;68434;59.896;30.474;2023-07-28T02:37:44;100183.09;;;19.65;55.88
79037;BME280;68434;59.896;30.474;2023-07-28T02:40:12;100175.31;;;19.62;55.45
79037;BME280;68434;59.896;30.474;2023-07-28T02:42:40;100168.84;;;19.57;55.17
79037;BME280;68434;59.896;30.474;2023-07-28T02:45:08;100170.50;;;19.58;55.32
79037;BME280;68434;59.896;30.474;2023-07-28T02:47:36;100161.69;;;19.56;55.34
79037;BME280;68434;59.896;30.474;2023-07-28T02:50:05;100153.28;;;19.51;55.49
79037;BME280;68434;59.896;30.474;2023-07-28T02:52:33;100161.13;;;19.47;55.65
79037;BME280;68434;59.896;30.474;2023-07-28T02:55:02;100169.81;;;19.44;55.93
79037;BME280;68434;59.896;30.474;2023-07-28T02:57:32;100166.03;;;19.45;55.87
79037;BME280;68434;59.896;30.474;2023-07-28T02:59:59;100153.13;;;19.46;56.08
79037;BME280;68434;59.896;30.474;2023-07-28T03:02:31;100150.38;;;19.46;56.23
79037;BME280;68434;59.896;30.474;2023-07-28T03:04:59;100147.63;;;19.46;56.19
79037;BME280;68434;59.896;30.474;2023-07-28T03:07:29;100154.41;;;19.43;56.37
79037;BME280;68434;59.896;30.474;2023-07-28T03:10:03;100155.72;;;19.41;56.18
79037;BME280;68434;59.896;30.474;2023-07-28T03:12:34;100146.25;;;19.37;56.33
79037;BME280;68434;59.896;30.474;2023-07-28T03:15:01;100143.72;;;19.35;56.26
79037;BME280;68434;59.896;30.474;2023-07-28T03:17:29;100141.00;;;19.35;56.40
79037;BME280;68434;59.896;30.474;2023-07-28T03:19:57;100138.88;;;19.37;56.66
79037;BME280;68434;59.896;30.474;2023-07-28T03:22:24;100141.38;;;19.39;56.91
79037;BME280;68434;59.896;30.474;2023-07-28T03:24:52;100137.56;;;19.40;56.79
79037;BME280;68434;59.896;30.474;2023-07-28T03:27:21;100137.34;;;19.41;56.90
79037;BME280;68434;59.896;30.474;2023-07-28T03:29:48;100130.56;;;19.44;56.95
79037;BME280;68434;59.896;30.474;2023-07-28T03:32:19;100126.97;;;19.43;56.89
79037;BME280;68434;59.896;30.474;2023-07-28T03:34:46;100131.63;;;19.43;57.20
79037;BME280;68434;59.896;30.474;2023-07-28T03:37:18;100134.75;;;19.46;57.26
79037;BME280;68434;59.896;30.474;2023-07-28T03:39:45;100139.16;;;19.47;57.34
79037;BME280;68434;59.896;30.474;2023-07-28T03:42:13;100128.19;;;19.47;57.37
79037;BME280;68434;59.896;30.474;2023-07-28T03:44:42;100119.75;;;19.49;57.59
79037;BME280;68434;59.896;30.474;2023-07-28T03:47:10;100120.81;;;19.48;57.54
79037;BME280;68434;59.896;30.474;2023-07-28T03:49:38;100111.72;;;19.47;57.47
79037;BME280;68434;59.896;30.474;2023-07-28T03:52:06;100106.25;;;19.47;57.94
79037;BME280;68434;59.896;30.474;2023-07-28T03:54:33;100110.06;;;19.46;57.87
79037;BME280;68434;59.896;30.474;2023-07-28T03:57:01;100110.69;;;19.48;57.87
79037;BME280;68434;59.896;30.474;2023-07-28T03:59:28;100115.94;;;19.50;57.87
79037;BME280;68434;59.896;30.474;2023-07-28T04:01:57;100114.03;;;19.50;57.67
79037;BME280;68434;59.896;30.474;2023-07-28T04:04:25;100097.78;;;19.49;57.86
79037;BME280;68434;59.896;30.474;2023-07-28T04:06:52;100098.88;;;19.48;57.79
79037;BME280;68434;59.896;30.474;2023-07-28T04:09:20;100088.75;;;19.48;57.93
79037;BME280;68434;59.896;30.474;2023-07-28T04:11:48;100084.06;;;19.49;57.70
79037;BME280;68434;59.896;30.474;2023-07-28T04:14:15;100082.56;;;19.53;57.82
79037;BME280;68434;59.896;30.474;2023-07-28T04:16:43;100084.00;;;19.55;57.72
79037;BME280;68434;59.896;30.474;2023-07-28T04:19:14;100076.38;;;19.57;58.09
79037;BME280;68434;59.896;30.474;2023-07-28T04:21:42;100085.91;;;19.55;57.89
79037;BME280;68434;59.896;30.474;2023-07-28T04:24:09;100088.06;;;19.53;58.00
79037;BME280;68434;59.896;30.474;2023-07-28T04:26:43;100082.56;;;19.53;58.00
79037;BME280;68434;59.896;30.474;2023-07-28T04:29:15;100073.25;;;19.54;58.19
79037;BME280;68434;59.896;30.474;2023-07-28T04:31:42;100068.38;;;19.56;58.28
79037;BME280;68434;59.896;30.474;2023-07-28T04:34:14;100067.09;;;19.58;58.52
79037;BME280;68434;59.896;30.474;2023-07-28T04:37:02;100057.78;;;19.59;58.53
79037;BME280;68434;59.896;30.474;2023-07-28T04:39:39;100056.72;;;19.60;58.52
79037;BME280;68434;59.896;30.474;2023-07-28T04:42:08;100061.34;;;19.60;58.59
79037;BME280;68434;59.896;30.474;2023-07-28T04:44:40;100068.50;;;19.61;58.52
79037;BME280;68434;59.896;30.474;2023-07-28T04:47:07;100068.38;;;19.74;58.23
79037;BME280;68434;59.896;30.474;2023-07-28T04:49:37;100062.09;;;19.67;58.31
79037;BME280;68434;59.896;30.474;2023-07-28T04:52:08;100063.41;;;19.64;58.39
79037;BME280;68434;59.896;30.474;2023-07-28T04:55:10;100069.53;;;19.66;58.37
79037;BME280;68434;59.896;30.474;2023-07-28T04:57:38;100061.53;;;19.65;58.37
79037;BME280;68434;59.896;30.474;2023-07-28T05:00:07;100058.63;;;19.60;58.38
79037;BME280;68434;59.896;30.474;2023-07-28T05:02:35;100060.16;;;19.56;58.25
79037;BME280;68434;59.896;30.474;2023-07-28T05:05:04;100057.41;;;19.56;58.40
79037;BME280;68434;59.896;30.474;2023-07-28T05:07:31;100048.72;;;19.59;58.26
79037;BME280;68434;59.896;30.474;2023-07-28T05:09:59;100047.41;;;19.61;58.21
79037;BME280;68434;59.896;30.474;2023-07-28T05:12:29;100041.06;;;19.61;58.28
79037;BME280;68434;59.896;30.474;2023-07-28T05:14:57;100044.66;;;19.61;58.01
79037;BME280;68434;59.896;30.474;2023-07-28T05:17:24;100042.38;;;19.58;58.11
79037;BME280;68434;59.896;30.474;2023-07-28T05:20:11;100052.50;;;19.58;58.07
79037;BME280;68434;59.896;30.474;2023-07-28T05:22:45;100042.38;;;19.58;57.64
79037;BME280;68434;59.896;30.474;2023-07-28T05:25:13;100040.09;;;19.55;57.71
79037;BME280;68434;59.896;30.474;2023-07-28T05:27:42;100031.47;;;19.52;57.67
79037;BME280;68434;59.896;30.474;2023-07-28T05:30:10;100035.53;;;19.49;57.93
79037;BME280;68434;59.896;30.474;2023-07-28T05:32:38;100038.28;;;19.49;57.81
79037;BME280;68434;59.896;30.474;2023-07-28T05:35:33;100046.50;;;19.49;57.86
79037;BME280;68434;59.896;30.474;2023-07-28T05:38:03;100044.00;;;19.48;58.02
79037;BME280;68434;59.896;30.474;2023-07-28T05:40:30;100042.56;;;19.45;57.89
79037;BME280;68434;59.896;30.474;2023-07-28T05:42:58;100045.53;;;19.44;58.00
79037;BME280;68434;59.896;30.474;2023-07-28T05:45:25;100046.56;;;19.43;58.20
79037;BME280;68434;59.896;30.474;2023-07-28T05:47:53;100049.53;;;19.41;58.07
79037;BME280;68434;59.896;30.474;2023-07-28T05:50:20;100045.59;;;19.37;58.47
79037;BME280;68434;59.896;30.474;2023-07-28T05:52:49;100042.84;;;19.37;58.36
79037;BME280;68434;59.896;30.474;2023-07-28T05:55:17;100040.78;;;19.33;58.70
79037;BME280;68434;59.896;30.474;2023-07-28T05:57:46;100033.25;;;19.28;58.79
79037;BME280;68434;59.896;30.474;2023-07-28T06:00:14;100028.84;;;19.27;58.87
79037;BME280;68434;59.896;30.474;2023-07-28T06:02:41;100019.81;;;19.38;58.82
79037;BME280;68434;59.896;30.474;2023-07-28T06:05:18;100014.22;;;19.33;58.90
79037;BME280;68434;59.896;30.474;2023-07-28T06:07:46;100020.97;;;19.31;58.96
79037;BME280;68434;59.896;30.474;2023-07-28T06:10:15;100018.84;;;19.33;59.29
79037;BME280;68434;59.896;30.474;2023-07-28T06:12:43;100018.22;;;19.31;59.24
79037;BME280;68434;59.896;30.474;2023-07-28T06:15:11;100018.22;;;19.31;59.62
79037;BME280;68434;59.896;30.474;2023-07-28T06:17:39;100013.19;;;19.28;59.57
79037;BME280;68434;59.896;30.474;2023-07-28T06:20:08;100008.13;;;19.25;59.89
79037;BME280;68434;59.896;30.474;2023-07-28T06:22:36;100013.25;;;19.21;59.73
79037;BME280;68434;59.896;30.474;2023-07-28T06:25:04;100005.50;;;19.18;60.09
79037;BME280;68434;59.896;30.474;2023-07-28T06:27:33;100000.59;;;19.20;60.09
79037;BME280;68434;59.896;30.474;2023-07-28T06:30:01;99998.47;;;19.22;60.35
79037;BME280;68434;59.896;30.474;2023-07-28T06:32:30;99992.53;;;19.25;60.29
79037;BME280;68434;59.896;30.474;2023-07-28T06:34:58;99990.00;;;19.24;60.36
79037;BME280;68434;59.896;30.474;2023-07-28T06:37:26;99990.88;;;19.24;60.46
79037;BME280;68434;59.896;30.474;2023-07-28T06:39:53;99985.16;;;19.26;60.61
79037;BME280;68434;59.896;30.474;2023-07-28T06:42:22;99985.31;;;19.31;60.48
79037;BME280;68434;59.896;30.474;2023-07-28T06:44:56;99987.00;;;19.32;60.34
79037;BME280;68434;59.896;30.474;2023-07-28T06:47:24;99979.81;;;19.31;60.65
79037;BME280;68434;59.896;30.474;2023-07-28T06:49:51;99972.06;;;19.28;60.71
79037;BME280;68434;59.896;30.474;2023-07-28T06:52:19;99971.00;;;19.29;60.97
79037;BME280;68434;59.896;30.474;2023-07-28T06:54:47;99974.50;;;19.36;60.92
79037;BME280;68434;59.896;30.474;2023-07-28T06:57:15;99971.06;;;19.40;60.71
79037;BME280;68434;59.896;30.474;2023-07-28T06:59:46;99968.09;;;19.42;60.92
79037;BME280;68434;59.896;30.474;2023-07-28T07:02:15;99959.63;;;19.43;60.74
79037;BME280;68434;59.896;30.474;2023-07-28T07:04:43;99963.00;;;19.45;60.88
79037;BME280;68434;59.896;30.474;2023-07-28T07:07:10;99961.91;;;19.46;60.80
79037;BME280;68434;59.896;30.474;2023-07-28T07:09:38;99961.69;;;19.48;60.97
79037;BME280;68434;59.896;30.474;2023-07-28T07:12:08;99969.44;;;19.51;61.15
79037;BME280;68434;59.896;30.474;2023-07-28T07:14:36;99964.81;;;19.51;60.94
79037;BME280;68434;59.896;30.474;2023-07-28T07:17:04;99962.88;;;19.52;61.05
79037;BME280;68434;59.896;30.474;2023-07-28T07:19:33;99945.38;;;19.53;60.91
79037;BME280;68434;59.896;30.474;2023-07-28T07:22:00;99956.56;;;19.51;60.86
79037;BME280;68434;59.896;30.474;2023-07-28T07:24:29;99953.84;;;19.51;60.53
79037;BME280;68434;59.896;30.474;2023-07-28T07:26:56;99951.31;;;19.50;60.31
79037;BME280;68434;59.896;30.474;2023-07-28T07:29:24;99958.09;;;19.47;60.54
79037;BME280;68434;59.896;30.474;2023-07-28T07:31:51;99947.50;;;19.51;60.45
79037;BME280;68434;59.896;30.474;2023-07-28T07:34:22;99954.19;;;19.55;60.51
79037;BME280;68434;59.896;30.474;2023-07-28T07:36:51;99952.91;;;19.57;60.30
79037;BME280;68434;59.896;30.474;2023-07-28T07:39:19;99952.66;;;19.59;60.31
79037;BME280;68434;59.896;30.474;2023-07-28T07:41:46;99951.81;;;19.58;60.28
79037;BME280;68434;59.896;30.474;2023-07-28T07:44:14;99952.91;;;19.57;60.17
79037;BME280;68434;59.896;30.474;2023-07-28T07:46:41;99947.66;;;19.56;60.11
79037;BME280;68434;59.896;30.474;2023-07-28T07:49:09;99952.06;;;19.57;60.26
79037;BME280;68434;59.896;30.474;2023-07-28T07:51:36;99950.38;;;19.56;60.45
79037;BME280;68434;59.896;30.474;2023-07-28T07:54:05;99944.75;;;19.51;60.58
79037;BME280;68434;59.896;30.474;2023-07-28T07:56:33;99939.72;;;19.48;60.55
79037;BME280;68434;59.896;30.474;2023-07-28T07:59:00;99949.38;;;19.50;60.50
79037;BME280;68434;59.896;30.474;2023-07-28T08:01:28;99948.34;;;19.51;60.44
79037;BME280;68434;59.896;30.474;2023-07-28T08:03:55;99955.50;;;19.52;60.40
79037;BME280;68434;59.896;30.474;2023-07-28T08:06:23;99954.06;;;19.50;60.18
79037;BME280;68434;59.896;30.474;2023-07-28T08:08:50;99958.69;;;19.49;59.90
79037;BME280;68434;59.896;30.474;2023-07-28T08:11:21;99964.41;;;19.48;59.42
79037;BME280;68434;59.896;30.474;2023-07-28T08:13:48;99952.84;;;19.46;59.06
79037;BME280;68434;59.896;30.474;2023-07-28T08:16:16;99957.72;;;19.44;58.91
79037;BME280;68434;59.896;30.474;2023-07-28T08:18:43;99954.13;;;19.43;58.71
79037;BME280;68434;59.896;30.474;2023-07-28T08:21:13;99952.25;;;19.44;58.63
79037;BME280;68434;59.896;30.474;2023-07-28T08:23:40;99953.28;;;19.43;58.78
79037;BME280;68434;59.896;30.474;2023-07-28T08:26:08;99947.81;;;19.43;58.55
79037;BME280;68434;59.896;30.474;2023-07-28T08:28:40;99947.00;;;19.42;58.39
79037;BME280;68434;59.896;30.474;2023-07-28T08:31:07;99947.00;;;19.42;58.49
79037;BME280;68434;59.896;30.474;2023-07-28T08:33:35;99940.19;;;19.45;58.71
79037;BME280;68434;59.896;30.474;2023-07-28T08:36:03;99951.56;;;19.48;58.66
79037;BME280;68434;59.896;30.474;2023-07-28T08:38:30;99948.56;;;19.50;58.53
79037;BME280;68434;59.896;30.474;2023-07-28T08:40:58;99960.13;;;19.52;58.53
79037;BME280;68434;59.896;30.474;2023-07-28T08:43:26;99960.13;;;19.52;58.81
79037;BME280;68434;59.896;30.474;2023-07-28T08:45:55;99951.09;;;19.51;58.41
79037;BME280;68434;59.896;30.474;2023-07-28T08:48:23;99957.63;;;19.50;58.26
79037;BME280;68434;59.896;30.474;2023-07-28T08:50:52;99961.44;;;19.49;57.67
79037;BME280;68434;59.896;30.474;2023-07-28T08:53:20;99954.75;;;19.45;57.72
79037;BME280;68434;59.896;30.474;2023-07-28T08:55:47;99949.28;;;19.45;57.65
79037;BME280;68434;59.896;30.474;2023-07-28T08:58:16;99952.84;;;19.46;57.43
79037;BME280;68434;59.896;30.474;2023-07-28T09:00:45;99945.22;;;19.48;57.02
79037;BME280;68434;59.896;30.474;2023-07-28T09:03:17;99952.13;;;19.50;56.78
79037;BME280;68434;59.896;30.474;2023-07-28T09:05:45;99948.34;;;19.51;56.54
79037;BME280;68434;59.896;30.474;2023-07-28T09:08:13;99960.13;;;19.52;56.26
79037;BME280;68434;59.896;30.474;2023-07-28T09:10:41;99952.75;;;19.52;56.07
79037;BME280;68434;59.896;30.474;2023-07-28T09:13:09;99947.88;;;19.54;56.19
79037;BME280;68434;59.896;30.474;2023-07-28T09:15:38;99972.13;;;19.57;55.79
79037;BME280;68434;59.896;30.474;2023-07-28T09:18:09;99955.41;;;19.59;55.25
79037;BME280;68434;59.896;30.474;2023-07-28T09:20:41;99956.22;;;19.59;55.21
79037;BME280;68434;59.896;30.474;2023-07-28T09:23:09;99949.47;;;19.62;55.19
79037;BME280;68434;59.896;30.474;2023-07-28T09:25:37;99959.34;;;19.63;54.79
79037;BME280;68434;59.896;30.474;2023-07-28T09:28:05;99956.63;;;19.63;54.65
79037;BME280;68434;59.896;30.474;2023-07-28T09:30:46;99958.28;;;19.64;54.69
79037;BME280;68434;59.896;30.474;2023-07-28T09:33:29;99964.16;;;19.67;54.57
79037;BME280;68434;59.896;30.474;2023-07-28T09:36:07;99960.09;;;19.70;54.48
79037;BME280;68434;59.896;30.474;2023-07-28T09:38:36;99963.06;;;19.68;54.39
79037;BME280;68434;59.896;30.474;2023-07-28T09:41:05;99954.50;;;19.65;54.39
79037;BME280;68434;59.896;30.474;2023-07-28T09:43:36;99946.25;;;19.65;54.28
79037;BME280;68434;59.896;30.474;2023-07-28T09:46:05;99954.50;;;19.65;54.19
79037;BME280;68434;59.896;30.474;2023-07-28T09:48:34;99947.91;;;19.66;54.36
79037;BME280;68434;59.896;30.474;2023-07-28T09:51:08;99949.59;;;19.67;54.63
79037;BME280;68434;59.896;30.474;2023-07-28T09:53:45;99948.53;;;19.68;54.17
79037;BME280;68434;59.896;30.474;2023-07-28T09:56:15;99948.53;;;19.68;54.40
79037;BME280;68434;59.896;30.474;2023-07-28T09:58:49;99952.94;;;19.69;54.43
79037;BME280;68434;59.896;30.474;2023-07-28T10:01:17;99953.78;;;19.69;54.32
79037;BME280;68434;59.896;30.474;2023-07-28T10:03:47;99952.94;;;19.69;54.46
79037;BME280;68434;59.896;30.474;2023-07-28T10:06:16;99945.16;;;19.66;54.91
79037;BME280;68434;59.896;30.474;2023-07-28T10:08:45;99946.25;;;19.65;55.12
79037;BME280;68434;59.896;30.474;2023-07-28T10:11:14;99959.75;;;19.66;55.14
79037;BME280;68434;59.896;30.474;2023-07-28T10:13:43;99954.59;;;19.70;55.20
79037;BME280;68434;59.896;30.474;2023-07-28T10:16:12;99968.72;;;19.73;55.40
79037;BME280;68434;59.896;30.474;2023-07-28T10:18:41;99968.25;;;19.76;55.53
79037;BME280;68434;59.896;30.474;2023-07-28T10:21:10;99978.38;;;19.76;55.67
79037;BME280;68434;59.896;30.474;2023-07-28T10:23:40;99975.41;;;19.77;55.59
79037;BME280;68434;59.896;30.474;2023-07-28T10:26:09;99985.78;;;19.75;55.74
79037;BME280;68434;59.896;30.474;2023-07-28T10:28:39;99983.06;;;19.75;55.59
79037;BME280;68434;59.896;30.474;2023-07-28T10:31:08;99995.47;;;19.78;56.03
79037;BME280;68434;59.896;30.474;2023-07-28T10:33:43;99982.34;;;19.80;55.73
79037;BME280;68434;59.896;30.474;2023-07-28T10:36:13;99976.63;;;19.81;55.93
79037;BME280;68434;59.896;30.474;2023-07-28T10:38:42;99985.69;;;19.82;56.20
79037;BME280;68434;59.896;30.474;2023-07-28T10:41:13;99972.56;;;19.84;56.17
79037;BME280;68434;59.896;30.474;2023-07-28T10:43:42;99967.22;;;19.89;56.30
79037;BME280;68434;59.896;30.474;2023-07-28T10:46:11;99970.56;;;19.91;56.20
79037;BME280;68434;59.896;30.474;2023-07-28T10:48:42;99976.66;;;19.93;56.18
79037;BME280;68434;59.896;30.474;2023-07-28T10:51:11;99976.19;;;19.96;56.22
79037;BME280;68434;59.896;30.474;2023-07-28T10:53:39;99974.28;;;19.96;56.36
79037;BME280;68434;59.896;30.474;2023-07-28T10:56:08;99975.97;;;19.97;56.65
79037;BME280;68434;59.896;30.474;2023-07-28T10:58:36;99964.97;;;19.97;56.83
79037;BME280;68434;59.896;30.474;2023-07-28T11:01:04;99966.41;;;20.00;56.88
79037;BME280;68434;59.896;30.474;2023-07-28T11:03:33;99966.41;;;20.00;57.04
79037;BME280;68434;59.896;30.474;2023-07-28T11:06:00;99965.34;;;20.01;57.69
79037;BME280;68434;59.896;30.474;2023-07-28T11:08:30;99965.59;;;19.99;57.78
79037;BME280;68434;59.896;30.474;2023-07-28T11:10:59;99956.72;;;19.97;57.73
79037;BME280;68434;59.896;30.474;2023-07-28T11:13:28;99967.72;;;19.97;57.78
79037;BME280;68434;59.896;30.474;2023-07-28T11:15:57;99964.72;;;19.99;57.70
79037;BME280;68434;59.896;30.474;2023-07-28T11:18:25;99967.25;;;20.00;58.31
79037;BME280;68434;59.896;30.474;2023-07-28T11:20:53;99968.34;;;20.11;57.86
79037;BME280;68434;59.896;30.474;2023-07-28T11:23:20;99955.94;;;20.08;58.06
79037;BME280;68434;59.896;30.474;2023-07-28T11:25:48;99955.94;;;20.08;57.68
79037;BME280;68434;59.896;30.474;2023-07-28T11:28:19;99959.03;;;20.12;58.30
79037;BME280;68434;59.896;30.474;2023-07-28T11:30:48;99963.84;;;20.16;57.97
79037;BME280;68434;59.896;30.474;2023-07-28T11:33:16;99955.38;;;20.18;58.14
79037;BME280;68434;59.896;30.474;2023-07-28T11:35:45;99960.38;;;20.21;58.28
79037;BME280;68434;59.896;30.474;2023-07-28T11:38:14;99973.66;;;20.24;58.41
79037;BME280;68434;59.896;30.474;2023-07-28T11:40:42;99976.63;;;20.22;58.56
79037;BME280;68434;59.896;30.474;2023-07-28T11:43:10;99986.91;;;20.27;58.76
79037;BME280;68434;59.896;30.474;2023-07-28T11:45:38;99979.91;;;20.31;58.58
79037;BME280;68434;59.896;30.474;2023-07-28T11:48:07;99989.34;;;20.35;58.67
79037;BME280;68434;59.896;30.474;2023-07-28T11:50:39;99987.78;;;20.39;58.72
79037;BME280;68434;59.896;30.474;2023-07-28T11:53:08;100004.63;;;20.42;58.67
79037;BME280;68434;59.896;30.474;2023-07-28T11:55:38;99995.31;;;20.43;58.54
79037;BME280;68434;59.896;30.474;2023-07-28T11:58:06;99994.50;;;20.43;58.36
79037;BME280;68434;59.896;30.474;2023-07-28T12:00:35;100002.97;;;20.41;58.24
79037;BME280;68434;59.896;30.474;2023-07-28T12:03:08;100001.03;;;20.42;58.59
79037;BME280;68434;59.896;30.474;2023-07-28T12:05:38;100006.91;;;20.45;58.48
79037;BME280;68434;59.896;30.474;2023-07-28T12:08:06;100001.56;;;20.51;58.20
79037;BME280;68434;59.896;30.474;2023-07-28T12:10:34;100001.31;;;20.52;58.27
79037;BME280;68434;59.896;30.474;2023-07-28T12:13:04;100002.50;;;20.56;58.02
79037;BME280;68434;59.896;30.474;2023-07-28T12:15:33;99992.31;;;20.57;58.12
79037;BME280;68434;59.896;30.474;2023-07-28T12:18:09;99984.69;;;20.59;57.83
79037;BME280;68434;59.896;30.474;2023-07-28T12:20:38;99991.38;;;20.63;58.40
79037;BME280;68434;59.896;30.474;2023-07-28T12:23:08;99990.41;;;20.69;58.84
79037;BME280;68434;59.896;30.474;2023-07-28T12:25:36;99987.56;;;20.75;58.96
79037;BME280;68434;59.896;30.474;2023-07-28T12:28:04;99989.00;;;20.89;59.29
79037;BME280;68434;59.896;30.474;2023-07-28T12:30:31;99991.38;;;20.86;59.76
79037;BME280;68434;59.896;30.474;2023-07-28T12:32:59;99992.22;;;20.86;60.66
79037;BME280;68434;59.896;30.474;2023-07-28T12:35:29;100003.00;;;20.88;61.19
79037;BME280;68434;59.896;30.474;2023-07-28T12:38:02;100009.91;;;20.90;61.45
79037;BME280;68434;59.896;30.474;2023-07-28T12:40:33;100007.41;;;20.89;61.60
79037;BME280;68434;59.896;30.474;2023-07-28T12:43:03;100006.69;;;20.93;61.86
79037;BME280;68434;59.896;30.474;2023-07-28T12:45:30;100013.41;;;20.97;61.51
79037;BME280;68434;59.896;30.474;2023-07-28T12:47:58;100009.94;;;21.02;61.29
79037;BME280;68434;59.896;30.474;2023-07-28T12:50:26;100018.91;;;21.09;61.07
79037;BME280;68434;59.896;30.474;2023-07-28T12:52:55;100019.88;;;21.14;60.55
79037;BME280;68434;59.896;30.474;2023-07-28T12:55:22;100028.47;;;21.18;59.77